sensor_id;sensor_type;location;lat;lon;timestamp;temperature;humidity
18335;DHT22;9293;49.524;10.964;2023-04-28T00:01:16;9.90;99.90
18335;DHT22;9293;49.524;10.964;2023-04-28T00:03:44;9.80;99.90
18335;DHT22;9293;49.524;10.964;2023-04-28T00:06:12;9.70;99.90
18335;DHT22;9293;49.524;10.964;2023-04-28T00:08:40;9.60;99.90
18335;DHT22;9293;49.524;10.964;2023-04-28T00:11:09;9.60;99.90
18335;DHT22;9293;49.524;10.964;2023-04-28T00:13:38;9.70;99.90
18335;DHT22;9293;49.524;10.964;2023-04-28T00:16:06;9.70;99.90
18335;DHT22;9293;49.524;10.964;2023-04-28T00:18:34;9.70;99.90
18335;DHT22;9293;49.524;10.964;2023-04-28T00:21:02;9.70;99.90
18335;DHT22;9293;49.524;10.964;2023-04-28T00:23:30;9.50;99.90
18335;DHT22;9293;49.524;10.964;2023-04-28T00:25:58;9.40;99.90
18335;DHT22;9293;49.524;10.964;2023-04-28T00:28:26;9.40;99.90
18335;DHT22;9293;49.524;10.964;2023-04-28T00:30:58;9.20;99.90
18335;DHT22;9293;49.524;10.964;2023-04-28T00:33:25;9.30;99.90
18335;DHT22;9293;49.524;10.964;2023-04-28T00:36:00;9.40;99.90
18335;DHT22;9293;49.524;10.964;2023-04-28T00:38:28;9.50;99.90
18335;DHT22;9293;49.524;10.964;2023-04-28T00:40:56;9.40;99.90
18335;DHT22;9293;49.524;10.964;2023-04-28T00:43:24;9.30;99.90
18335;DHT22;9293;49.524;10.964;2023-04-28T00:45:52;9.40;99.90
18335;DHT22;9293;49.524;10.964;2023-04-28T00:48:21;9.50;99.90
18335;DHT22;9293;49.524;10.964;2023-04-28T00:50:50;9.50;99.90
18335;DHT22;9293;49.524;10.964;2023-04-28T00:53:18;9.30;99.90
18335;DHT22;9293;49.524;10.964;2023-04-28T00:55:47;9.40;99.90
18335;DHT22;9293;49.524;10.964;2023-04-28T00:58:15;9.50;99.90
18335;DHT22;9293;49.524;10.964;2023-04-28T01:00:44;9.60;99.90
18335;DHT22;9293;49.524;10.964;2023-04-28T01:03:12;9.60;99.90
18335;DHT22;9293;49.524;10.964;2023-04-28T01:05:40;9.70;99.90
18335;DHT22;9293;49.524;10.964;2023-04-28T01:08:09;9.70;99.90
18335;DHT22;9293;49.524;10.964;2023-04-28T01:10:42;9.70;99.90
18335;DHT22;9293;49.524;10.964;2023-04-28T01:13:19;9.70;99.90
18335;DHT22;9293;49.524;10.964;2023-04-28T01:15:47;9.80;99.90
18335;DHT22;9293;49.524;10.964;2023-04-28T01:18:15;9.80;99.90
18335;DHT22;9293;49.524;10.964;2023-04-28T01:20:48;9.70;99.90
18335;DHT22;9293;49.524;10.964;2023-04-28T01:23:18;9.70;99.90
18335;DHT22;9293;49.524;10.964;2023-04-28T01:25:46;9.80;99.90
18335;DHT22;9293;49.524;10.964;2023-04-28T01:28:14;9.80;99.90
18335;DHT22;9293;49.524;10.964;2023-04-28T01:30:43;9.80;99.90
18335;DHT22;9293;49.524;10.964;2023-04-28T01:33:11;9.80;99.90
18335;DHT22;9293;49.524;10.964;2023-04-28T01:35:40;9.70;99.90
18335;DHT22;9293;49.524;10.964;2023-04-28T01:38:09;9.60;99.90
18335;DHT22;9293;49.524;10.964;2023-04-28T01:40:37;9.40;99.90
18335;DHT22;9293;49.524;10.964;2023-04-28T01:43:05;9.40;99.90
18335;DHT22;9293;49.524;10.964;2023-04-28T01:45:33;9.50;99.90
18335;DHT22;9293;49.524;10.964;2023-04-28T01:48:01;9.60;99.90
18335;DHT22;9293;49.524;10.964;2023-04-28T01:50:30;9.60;99.90
18335;DHT22;9293;49.524;10.964;2023-04-28T01:52:58;9.70;99.90
18335;DHT22;9293;49.524;10.964;2023-04-28T01:55:26;9.70;99.90
18335;DHT22;9293;49.524;10.964;2023-04-28T01:57:54;9.80;99.90
18335;DHT22;9293;49.524;10.964;2023-04-28T02:00:26;9.70;99.90
18335;DHT22;9293;49.524;10.964;2023-04-28T02:02:54;9.50;99.90
18335;DHT22;9293;49.524;10.964;2023-04-28T02:05:22;9.40;99.90
18335;DHT22;9293;49.524;10.964;2023-04-28T02:07:50;9.40;99.90
18335;DHT22;9293;49.524;10.964;2023-04-28T02:10:19;9.30;99.90
18335;DHT22;9293;49.524;10.964;2023-04-28T02:12:47;9.20;99.90
18335;DHT22;9293;49.524;10.964;2023-04-28T02:15:15;9.20;99.90
18335;DHT22;9293;49.524;10.964;2023-04-28T02:17:43;9.10;99.90
18335;DHT22;9293;49.524;10.964;2023-04-28T02:20:13;9.10;99.90
18335;DHT22;9293;49.524;10.964;2023-04-28T02:22:43;9.10;99.90
18335;DHT22;9293;49.524;10.964;2023-04-28T02:25:11;9.10;99.90
18335;DHT22;9293;49.524;10.964;2023-04-28T02:27:39;9.20;99.90
18335;DHT22;9293;49.524;10.964;2023-04-28T02:30:08;9.30;99.90
18335;DHT22;9293;49.524;10.964;2023-04-28T02:32:36;9.40;99.90
18335;DHT22;9293;49.524;10.964;2023-04-28T02:35:05;9.50;99.90
18335;DHT22;9293;49.524;10.964;2023-04-28T02:37:33;9.50;99.90
18335;DHT22;9293;49.524;10.964;2023-04-28T02:40:01;9.60;99.90
18335;DHT22;9293;49.524;10.964;2023-04-28T02:42:29;9.60;99.90
18335;DHT22;9293;49.524;10.964;2023-04-28T02:44:57;9.40;99.90
18335;DHT22;9293;49.524;10.964;2023-04-28T02:47:25;9.30;99.90
18335;DHT22;9293;49.524;10.964;2023-04-28T02:49:54;9.30;99.90
18335;DHT22;9293;49.524;10.964;2023-04-28T02:52:22;9.20;99.90
18335;DHT22;9293;49.524;10.964;2023-04-28T02:54:50;9.20;99.90
18335;DHT22;9293;49.524;10.964;2023-04-28T02:57:21;9.30;99.90
18335;DHT22;9293;49.524;10.964;2023-04-28T02:59:49;9.40;99.90
18335;DHT22;9293;49.524;10.964;2023-04-28T03:02:17;9.40;99.90
18335;DHT22;9293;49.524;10.964;2023-04-28T03:04:47;9.40;99.90
18335;DHT22;9293;49.524;10.964;2023-04-28T03:07:15;9.40;99.90
18335;DHT22;9293;49.524;10.964;2023-04-28T03:09:44;9.40;99.90
18335;DHT22;9293;49.524;10.964;2023-04-28T03:12:15;9.40;99.90
18335;DHT22;9293;49.524;10.964;2023-04-28T03:14:45;9.50;99.90
18335;DHT22;9293;49.524;10.964;2023-04-28T03:17:18;9.50;99.90
18335;DHT22;9293;49.524;10.964;2023-04-28T03:19:46;9.60;99.90
18335;DHT22;9293;49.524;10.964;2023-04-28T03:22:14;9.60;99.90
18335;DHT22;9293;49.524;10.964;2023-04-28T03:24:42;9.70;99.90
18335;DHT22;9293;49.524;10.964;2023-04-28T03:27:11;9.70;99.90
18335;DHT22;9293;49.524;10.964;2023-04-28T03:29:39;9.70;99.90
18335;DHT22;9293;49.524;10.964;2023-04-28T03:32:07;9.60;99.90
18335;DHT22;9293;49.524;10.964;2023-04-28T03:34:35;9.60;99.90
18335;DHT22;9293;49.524;10.964;2023-04-28T03:37:04;9.60;99.90
18335;DHT22;9293;49.524;10.964;2023-04-28T03:39:32;9.50;99.90
18335;DHT22;9293;49.524;10.964;2023-04-28T03:42:01;9.50;99.90
18335;DHT22;9293;49.524;10.964;2023-04-28T03:45:04;9.50;99.90
18335;DHT22;9293;49.524;10.964;2023-04-28T03:47:32;9.50;99.90
18335;DHT22;9293;49.524;10.964;2023-04-28T03:50:00;9.40;99.90
18335;DHT22;9293;49.524;10.964;2023-04-28T03:52:28;9.40;99.90
18335;DHT22;9293;49.524;10.964;2023-04-28T03:54:57;9.50;99.90
18335;DHT22;9293;49.524;10.964;2023-04-28T03:57:26;9.60;99.90
18335;DHT22;9293;49.524;10.964;2023-04-28T03:59:55;9.70;99.90
18335;DHT22;9293;49.524;10.964;2023-04-28T04:02:23;9.80;99.90
18335;DHT22;9293;49.524;10.964;2023-04-28T04:04:51;9.90;99.90
18335;DHT22;9293;49.524;10.964;2023-04-28T04:07:20;9.80;99.90
18335;DHT22;9293;49.524;10.964;2023-04-28T04:09:52;9.80;99.90
18335;DHT22;9293;49.524;10.964;2023-04-28T04:12:31;9.90;99.90
18335;DHT22;9293;49.524;10.964;2023-04-28T04:14:59;9.80;99.90
18335;DHT22;9293;49.524;10.964;2023-04-28T04:17:28;9.90;99.90
18335;DHT22;9293;49.524;10.964;2023-04-28T04:19:56;10.00;99.90
18335;DHT22;9293;49.524;10.964;2023-04-28T04:22:25;10.00;99.90
18335;DHT22;9293;49.524;10.964;2023-04-28T04:24:53;10.10;99.90
18335;DHT22;9293;49.524;10.964;2023-04-28T04:27:21;10.10;99.90
18335;DHT22;9293;49.524;10.964;2023-04-28T04:29:50;10.10;99.90
18335;DHT22;9293;49.524;10.964;2023-04-28T04:32:21;10.20;99.90
18335;DHT22;9293;49.524;10.964;2023-04-28T04:34:50;10.20;99.90
18335;DHT22;9293;49.524;10.964;2023-04-28T04:37:18;10.20;99.90
18335;DHT22;9293;49.524;10.964;2023-04-28T04:39:55;10.20;99.90
18335;DHT22;9293;49.524;10.964;2023-04-28T04:42:23;10.10;99.90
18335;DHT22;9293;49.524;10.964;2023-04-28T04:45:14;10.10;99.90
18335;DHT22;9293;49.524;10.964;2023-04-28T04:47:43;10.20;99.90
18335;DHT22;9293;49.524;10.964;2023-04-28T04:50:11;10.20;99.90
18335;DHT22;9293;49.524;10.964;2023-04-28T04:52:44;10.30;99.90
18335;DHT22;9293;49.524;10.964;2023-04-28T04:55:14;10.30;99.90
18335;DHT22;9293;49.524;10.964;2023-04-28T04:57:43;10.40;99.90
18335;DHT22;9293;49.524;10.964;2023-04-28T05:00:50;10.40;99.90
18335;DHT22;9293;49.524;10.964;2023-04-28T05:03:18;10.50;99.90
18335;DHT22;9293;49.524;10.964;2023-04-28T05:05:46;10.50;99.90
18335;DHT22;9293;49.524;10.964;2023-04-28T05:08:28;10.50;99.90
18335;DHT22;9293;49.524;10.964;2023-04-28T05:10:56;10.50;99.90
18335;DHT22;9293;49.524;10.964;2023-04-28T05:13:24;10.40;99.90
18335;DHT22;9293;49.524;10.964;2023-04-28T05:16:01;10.30;99.90
18335;DHT22;9293;49.524;10.964;2023-04-28T05:18:48;10.30;99.90
18335;DHT22;9293;49.524;10.964;2023-04-28T05:21:17;10.30;99.90
18335;DHT22;9293;49.524;10.964;2023-04-28T05:23:47;10.40;99.90
18335;DHT22;9293;49.524;10.964;2023-04-28T05:26:15;10.40;99.90
18335;DHT22;9293;49.524;10.964;2023-04-28T05:28:43;10.40;99.90
18335;DHT22;9293;49.524;10.964;2023-04-28T05:31:11;10.40;99.90
18335;DHT22;9293;49.524;10.964;2023-04-28T05:33:39;10.60;99.90
18335;DHT22;9293;49.524;10.964;2023-04-28T05:36:08;10.70;99.90
18335;DHT22;9293;49.524;10.964;2023-04-28T05:38:36;10.80;99.90
18335;DHT22;9293;49.524;10.964;2023-04-28T05:41:04;10.90;99.90
18335;DHT22;9293;49.524;10.964;2023-04-28T05:43:32;10.90;99.90
18335;DHT22;9293;49.524;10.964;2023-04-28T05:46:01;10.90;99.90
18335;DHT22;9293;49.524;10.964;2023-04-28T05:48:37;10.90;99.90
18335;DHT22;9293;49.524;10.964;2023-04-28T05:51:05;11.00;99.90
18335;DHT22;9293;49.524;10.964;2023-04-28T05:53:34;11.00;99.90
18335;DHT22;9293;49.524;10.964;2023-04-28T05:56:03;11.00;99.90
18335;DHT22;9293;49.524;10.964;2023-04-28T05:58:31;10.90;99.90
18335;DHT22;9293;49.524;10.964;2023-04-28T06:01:00;10.90;99.90
18335;DHT22;9293;49.524;10.964;2023-04-28T06:03:28;10.90;99.90
18335;DHT22;9293;49.524;10.964;2023-04-28T06:05:56;11.00;99.90
18335;DHT22;9293;49.524;10.964;2023-04-28T06:08:25;11.00;99.90
18335;DHT22;9293;49.524;10.964;2023-04-28T06:10:53;11.10;99.90
18335;DHT22;9293;49.524;10.964;2023-04-28T06:13:21;11.10;99.90
18335;DHT22;9293;49.524;10.964;2023-04-28T06:15:49;11.20;99.90
18335;DHT22;9293;49.524;10.964;2023-04-28T06:18:18;11.30;99.90
18335;DHT22;9293;49.524;10.964;2023-04-28T06:20:46;11.30;99.90
18335;DHT22;9293;49.524;10.964;2023-04-28T06:23:14;11.30;99.90
18335;DHT22;9293;49.524;10.964;2023-04-28T06:25:45;11.30;99.90
18335;DHT22;9293;49.524;10.964;2023-04-28T06:28:13;11.30;99.90
18335;DHT22;9293;49.524;10.964;2023-04-28T06:30:44;11.30;99.90
18335;DHT22;9293;49.524;10.964;2023-04-28T06:33:13;11.40;99.90
18335;DHT22;9293;49.524;10.964;2023-04-28T06:35:42;11.40;99.90
18335;DHT22;9293;49.524;10.964;2023-04-28T06:38:10;11.40;99.90
18335;DHT22;9293;49.524;10.964;2023-04-28T06:40:38;11.40;99.90
18335;DHT22;9293;49.524;10.964;2023-04-28T06:43:08;11.50;99.90
18335;DHT22;9293;49.524;10.964;2023-04-28T06:45:40;11.50;99.90
18335;DHT22;9293;49.524;10.964;2023-04-28T06:48:09;11.50;99.90
18335;DHT22;9293;49.524;10.964;2023-04-28T06:50:37;11.50;99.90
18335;DHT22;9293;49.524;10.964;2023-04-28T06:53:09;11.40;99.90
18335;DHT22;9293;49.524;10.964;2023-04-28T06:55:38;11.30;99.90
18335;DHT22;9293;49.524;10.964;2023-04-28T06:58:06;11.30;99.90
18335;DHT22;9293;49.524;10.964;2023-04-28T07:00:34;11.30;99.90
18335;DHT22;9293;49.524;10.964;2023-04-28T07:03:02;11.30;99.90
18335;DHT22;9293;49.524;10.964;2023-04-28T07:05:31;11.30;99.90
18335;DHT22;9293;49.524;10.964;2023-04-28T07:08:00;11.20;99.90
18335;DHT22;9293;49.524;10.964;2023-04-28T07:10:28;11.20;99.90
18335;DHT22;9293;49.524;10.964;2023-04-28T07:12:56;11.20;99.90
18335;DHT22;9293;49.524;10.964;2023-04-28T07:15:26;11.20;99.90
18335;DHT22;9293;49.524;10.964;2023-04-28T07:17:54;11.20;99.90
18335;DHT22;9293;49.524;10.964;2023-04-28T07:20:23;11.10;99.90
18335;DHT22;9293;49.524;10.964;2023-04-28T07:22:51;11.10;99.90
18335;DHT22;9293;49.524;10.964;2023-04-28T07:25:19;11.10;99.90
18335;DHT22;9293;49.524;10.964;2023-04-28T07:27:47;11.20;99.90
18335;DHT22;9293;49.524;10.964;2023-04-28T07:30:15;11.20;99.90
18335;DHT22;9293;49.524;10.964;2023-04-28T07:32:53;11.20;99.90
18335;DHT22;9293;49.524;10.964;2023-04-28T07:35:22;11.10;99.90
18335;DHT22;9293;49.524;10.964;2023-04-28T07:37:50;11.10;99.90
18335;DHT22;9293;49.524;10.964;2023-04-28T07:40:19;11.00;99.90
18335;DHT22;9293;49.524;10.964;2023-04-28T07:42:47;10.90;99.90
18335;DHT22;9293;49.524;10.964;2023-04-28T07:45:15;10.90;99.90
18335;DHT22;9293;49.524;10.964;2023-04-28T07:47:43;11.00;99.90
18335;DHT22;9293;49.524;10.964;2023-04-28T07:50:12;11.00;99.90
18335;DHT22;9293;49.524;10.964;2023-04-28T07:52:40;11.00;99.90
18335;DHT22;9293;49.524;10.964;2023-04-28T07:55:08;11.00;99.90
18335;DHT22;9293;49.524;10.964;2023-04-28T07:57:36;11.00;99.90
18335;DHT22;9293;49.524;10.964;2023-04-28T08:00:04;11.00;99.90
18335;DHT22;9293;49.524;10.964;2023-04-28T08:02:41;11.00;99.90
18335;DHT22;9293;49.524;10.964;2023-04-28T08:05:09;11.00;99.90
18335;DHT22;9293;49.524;10.964;2023-04-28T08:07:38;11.00;99.90
18335;DHT22;9293;49.524;10.964;2023-04-28T08:10:08;11.00;99.90
18335;DHT22;9293;49.524;10.964;2023-04-28T08:12:37;11.00;99.90
18335;DHT22;9293;49.524;10.964;2023-04-28T08:15:05;11.00;99.90
18335;DHT22;9293;49.524;10.964;2023-04-28T08:17:33;11.00;99.90
18335;DHT22;9293;49.524;10.964;2023-04-28T08:20:01;10.90;99.90
18335;DHT22;9293;49.524;10.964;2023-04-28T08:22:30;11.00;99.90
18335;DHT22;9293;49.524;10.964;2023-04-28T08:24:58;11.00;99.90
18335;DHT22;9293;49.524;10.964;2023-04-28T08:27:26;11.00;99.90
18335;DHT22;9293;49.524;10.964;2023-04-28T08:29:54;11.00;99.90
18335;DHT22;9293;49.524;10.964;2023-04-28T08:32:22;11.00;99.90
18335;DHT22;9293;49.524;10.964;2023-04-28T08:34:50;11.00;99.90
18335;DHT22;9293;49.524;10.964;2023-04-28T08:37:18;11.00;99.90
18335;DHT22;9293;49.524;10.964;2023-04-28T08:39:47;11.00;99.90
18335;DHT22;9293;49.524;10.964;2023-04-28T08:42:15;11.00;99.90
18335;DHT22;9293;49.524;10.964;2023-04-28T08:44:44;11.10;99.90
18335;DHT22;9293;49.524;10.964;2023-04-28T08:47:13;11.20;99.90
18335;DHT22;9293;49.524;10.964;2023-04-28T08:49:41;11.20;99.90
18335;DHT22;9293;49.524;10.964;2023-04-28T08:52:11;11.20;99.90
18335;DHT22;9293;49.524;10.964;2023-04-28T08:54:40;11.20;99.90
18335;DHT22;9293;49.524;10.964;2023-04-28T08:57:09;11.20;99.90
18335;DHT22;9293;49.524;10.964;2023-04-28T08:59:37;11.20;99.90
18335;DHT22;9293;49.524;10.964;2023-04-28T09:02:08;11.20;99.90
18335;DHT22;9293;49.524;10.964;2023-04-28T09:04:37;11.20;99.90
18335;DHT22;9293;49.524;10.964;2023-04-28T09:07:12;11.20;99.90
18335;DHT22;9293;49.524;10.964;2023-04-28T09:09:40;11.20;99.90
18335;DHT22;9293;49.524;10.964;2023-04-28T09:12:08;11.30;99.90
18335;DHT22;9293;49.524;10.964;2023-04-28T09:14:37;11.30;99.90
18335;DHT22;9293;49.524;10.964;2023-04-28T09:17:09;11.30;99.90
18335;DHT22;9293;49.524;10.964;2023-04-28T09:19:38;11.30;99.90
18335;DHT22;9293;49.524;10.964;2023-04-28T09:22:07;11.20;99.90
18335;DHT22;9293;49.524;10.964;2023-04-28T09:24:51;11.30;99.90
18335;DHT22;9293;49.524;10.964;2023-04-28T09:27:25;11.30;99.90
18335;DHT22;9293;49.524;10.964;2023-04-28T09:29:53;11.30;99.90
18335;DHT22;9293;49.524;10.964;2023-04-28T09:32:22;11.30;99.90
18335;DHT22;9293;49.524;10.964;2023-04-28T09:34:52;11.30;99.90
18335;DHT22;9293;49.524;10.964;2023-04-28T09:37:21;11.30;99.90
18335;DHT22;9293;49.524;10.964;2023-04-28T09:39:51;11.30;99.90
18335;DHT22;9293;49.524;10.964;2023-04-28T09:45:03;11.50;99.90
18335;DHT22;9293;49.524;10.964;2023-04-28T09:47:32;11.60;99.90
18335;DHT22;9293;49.524;10.964;2023-04-28T09:50:03;11.70;99.90
18335;DHT22;9293;49.524;10.964;2023-04-28T09:52:32;11.80;99.90
18335;DHT22;9293;49.524;10.964;2023-04-28T09:55:01;11.80;99.90
18335;DHT22;9293;49.524;10.964;2023-04-28T09:57:30;11.90;99.90
18335;DHT22;9293;49.524;10.964;2023-04-28T10:00:02;11.90;99.90
18335;DHT22;9293;49.524;10.964;2023-04-28T10:02:34;11.90;99.90
18335;DHT22;9293;49.524;10.964;2023-04-28T10:05:06;12.00;99.90
18335;DHT22;9293;49.524;10.964;2023-04-28T10:07:40;12.10;99.90
18335;DHT22;9293;49.524;10.964;2023-04-28T10:10:08;12.00;99.90
18335;DHT22;9293;49.524;10.964;2023-04-28T10:12:36;12.00;99.90
18335;DHT22;9293;49.524;10.964;2023-04-28T10:15:05;12.00;99.90
18335;DHT22;9293;49.524;10.964;2023-04-28T10:17:34;11.90;99.90
18335;DHT22;9293;49.524;10.964;2023-04-28T10:20:03;12.00;99.90
18335;DHT22;9293;49.524;10.964;2023-04-28T10:27:28;12.00;99.90
18335;DHT22;9293;49.524;10.964;2023-04-28T10:30:13;12.10;99.90
18335;DHT22;9293;49.524;10.964;2023-04-28T10:32:44;12.20;99.90
18335;DHT22;9293;49.524;10.964;2023-04-28T10:38:03;12.10;99.90
18335;DHT22;9293;49.524;10.964;2023-04-28T10:58:47;12.60;99.90
18335;DHT22;9293;49.524;10.964;2023-04-28T11:06:19;12.90;99.90
18335;DHT22;9293;49.524;10.964;2023-04-28T11:08:54;13.00;99.90
18335;DHT22;9293;49.524;10.964;2023-04-28T11:11:24;13.20;99.90
18335;DHT22;9293;49.524;10.964;2023-04-28T11:14:39;13.40;99.90
18335;DHT22;9293;49.524;10.964;2023-04-28T11:19:20;13.50;99.90
18335;DHT22;9293;49.524;10.964;2023-04-28T11:21:49;13.50;99.90
18335;DHT22;9293;49.524;10.964;2023-04-28T11:24:17;13.60;99.90
18335;DHT22;9293;49.524;10.964;2023-04-28T11:26:45;13.70;99.90
18335;DHT22;9293;49.524;10.964;2023-04-28T11:29:14;13.80;99.90
18335;DHT22;9293;49.524;10.964;2023-04-28T11:31:49;13.80;99.90
18335;DHT22;9293;49.524;10.964;2023-04-28T11:34:19;13.80;99.90
18335;DHT22;9293;49.524;10.964;2023-04-28T11:36:47;13.80;99.90
18335;DHT22;9293;49.524;10.964;2023-04-28T11:39:17;13.70;99.90
18335;DHT22;9293;49.524;10.964;2023-04-28T11:41:59;13.70;99.90
18335;DHT22;9293;49.524;10.964;2023-04-28T11:44:29;13.80;99.90
18335;DHT22;9293;49.524;10.964;2023-04-28T11:46:58;13.90;99.90
18335;DHT22;9293;49.524;10.964;2023-04-28T11:49:31;13.90;99.90
18335;DHT22;9293;49.524;10.964;2023-04-28T11:52:08;13.90;99.90
18335;DHT22;9293;49.524;10.964;2023-04-28T11:54:36;14.00;99.90
18335;DHT22;9293;49.524;10.964;2023-04-28T11:57:05;14.10;99.90
18335;DHT22;9293;49.524;10.964;2023-04-28T11:59:33;14.20;99.90
18335;DHT22;9293;49.524;10.964;2023-04-28T12:02:06;14.20;99.90
18335;DHT22;9293;49.524;10.964;2023-04-28T12:04:39;14.20;99.90
18335;DHT22;9293;49.524;10.964;2023-04-28T12:07:11;14.10;99.90
18335;DHT22;9293;49.524;10.964;2023-04-28T12:09:41;14.00;99.90
18335;DHT22;9293;49.524;10.964;2023-04-28T12:12:11;14.00;99.90
18335;DHT22;9293;49.524;10.964;2023-04-28T12:14:56;14.00;99.90
18335;DHT22;9293;49.524;10.964;2023-04-28T12:17:35;14.10;99.90
18335;DHT22;9293;49.524;10.964;2023-04-28T12:20:04;14.30;99.90
18335;DHT22;9293;49.524;10.964;2023-04-28T12:25:11;14.60;99.90
18335;DHT22;9293;49.524;10.964;2023-04-28T12:27:39;14.80;99.90
18335;DHT22;9293;49.524;10.964;2023-04-28T12:32:47;15.00;99.90
18335;DHT22;9293;49.524;10.964;2023-04-28T12:35:15;15.20;99.90
18335;DHT22;9293;49.524;10.964;2023-04-28T12:37:43;15.30;99.90
18335;DHT22;9293;49.524;10.964;2023-04-28T12:40:12;15.10;99.90
18335;DHT22;9293;49.524;10.964;2023-04-28T12:42:41;15.10;99.90
18335;DHT22;9293;49.524;10.964;2023-04-28T12:45:09;15.20;99.90
18335;DHT22;9293;49.524;10.964;2023-04-28T12:47:37;15.30;99.90
18335;DHT22;9293;49.524;10.964;2023-04-28T12:50:06;15.30;99.90
18335;DHT22;9293;49.524;10.964;2023-04-28T12:52:35;15.40;99.90
18335;DHT22;9293;49.524;10.964;2023-04-28T12:55:04;15.50;99.90
18335;DHT22;9293;49.524;10.964;2023-04-28T12:57:32;15.40;99.90
18335;DHT22;9293;49.524;10.964;2023-04-28T13:00:05;15.20;99.90
18335;DHT22;9293;49.524;10.964;2023-04-28T13:02:34;15.10;99.90
18335;DHT22;9293;49.524;10.964;2023-04-28T13:05:02;15.10;99.90
18335;DHT22;9293;49.524;10.964;2023-04-28T13:07:31;15.00;99.90
18335;DHT22;9293;49.524;10.964;2023-04-28T13:10:00;15.00;99.90
18335;DHT22;9293;49.524;10.964;2023-04-28T13:12:28;14.90;99.90
18335;DHT22;9293;49.524;10.964;2023-04-28T13:15:02;15.00;99.90
18335;DHT22;9293;49.524;10.964;2023-04-28T13:17:30;15.10;99.90
18335;DHT22;9293;49.524;10.964;2023-04-28T13:19:59;15.20;99.90
18335;DHT22;9293;49.524;10.964;2023-04-28T13:22:28;15.30;99.90
18335;DHT22;9293;49.524;10.964;2023-04-28T13:24:56;15.30;99.90
18335;DHT22;9293;49.524;10.964;2023-04-28T13:27:24;15.40;99.90
18335;DHT22;9293;49.524;10.964;2023-04-28T13:29:57;15.50;99.90
18335;DHT22;9293;49.524;10.964;2023-04-28T13:32:25;15.50;99.90
18335;DHT22;9293;49.524;10.964;2023-04-28T13:34:54;15.50;99.90
18335;DHT22;9293;49.524;10.964;2023-04-28T13:37:23;15.60;99.90
18335;DHT22;9293;49.524;10.964;2023-04-28T13:39:51;15.70;99.90
18335;DHT22;9293;49.524;10.964;2023-04-28T13:42:19;15.70;99.90
18335;DHT22;9293;49.524;10.964;2023-04-28T13:44:47;15.80;99.90
18335;DHT22;9293;49.524;10.964;2023-04-28T13:47:16;15.90;99.90
18335;DHT22;9293;49.524;10.964;2023-04-28T13:49:44;15.90;99.90
18335;DHT22;9293;49.524;10.964;2023-04-28T13:52:12;15.80;99.90
18335;DHT22;9293;49.524;10.964;2023-04-28T13:54:41;15.80;99.90
18335;DHT22;9293;49.524;10.964;2023-04-28T13:57:10;15.80;99.90
18335;DHT22;9293;49.524;10.964;2023-04-28T13:59:40;15.80;99.90
18335;DHT22;9293;49.524;10.964;2023-04-28T14:02:08;15.90;99.90
18335;DHT22;9293;49.524;10.964;2023-04-28T14:04:38;15.90;99.90
18335;DHT22;9293;49.524;10.964;2023-04-28T14:07:07;15.90;99.90
18335;DHT22;9293;49.524;10.964;2023-04-28T14:09:35;15.90;99.90
18335;DHT22;9293;49.524;10.964;2023-04-28T14:12:03;16.00;99.90
18335;DHT22;9293;49.524;10.964;2023-04-28T14:14:31;16.10;99.90
18335;DHT22;9293;49.524;10.964;2023-04-28T14:16:59;16.10;99.90
18335;DHT22;9293;49.524;10.964;2023-04-28T14:19:28;16.20;99.90
18335;DHT22;9293;49.524;10.964;2023-04-28T14:21:56;16.30;99.90
18335;DHT22;9293;49.524;10.964;2023-04-28T14:24:24;16.30;99.90
18335;DHT22;9293;49.524;10.964;2023-04-28T14:26:52;16.40;99.90
18335;DHT22;9293;49.524;10.964;2023-04-28T14:29:20;16.50;99.90
18335;DHT22;9293;49.524;10.964;2023-04-28T14:31:48;16.50;99.90
18335;DHT22;9293;49.524;10.964;2023-04-28T14:34:16;16.40;99.90
18335;DHT22;9293;49.524;10.964;2023-04-28T14:36:44;16.40;99.90
18335;DHT22;9293;49.524;10.964;2023-04-28T14:39:13;16.40;99.90
18335;DHT22;9293;49.524;10.964;2023-04-28T14:41:41;16.40;99.90
18335;DHT22;9293;49.524;10.964;2023-04-28T14:44:09;16.20;99.90
18335;DHT22;9293;49.524;10.964;2023-04-28T14:46:37;16.20;99.90
18335;DHT22;9293;49.524;10.964;2023-04-28T14:49:05;16.20;99.90
18335;DHT22;9293;49.524;10.964;2023-04-28T14:51:35;16.20;99.90
18335;DHT22;9293;49.524;10.964;2023-04-28T14:54:04;16.10;99.90
18335;DHT22;9293;49.524;10.964;2023-04-28T14:56:33;16.00;99.90
18335;DHT22;9293;49.524;10.964;2023-04-28T14:59:01;15.90;99.90
18335;DHT22;9293;49.524;10.964;2023-04-28T15:01:33;15.90;99.90
18335;DHT22;9293;49.524;10.964;2023-04-28T15:04:04;16.00;99.90
18335;DHT22;9293;49.524;10.964;2023-04-28T15:06:33;16.00;99.90
18335;DHT22;9293;49.524;10.964;2023-04-28T15:09:01;16.00;99.90
18335;DHT22;9293;49.524;10.964;2023-04-28T15:11:30;16.10;99.90
18335;DHT22;9293;49.524;10.964;2023-04-28T15:13:58;16.20;99.90
18335;DHT22;9293;49.524;10.964;2023-04-28T15:16:26;16.30;99.90
18335;DHT22;9293;49.524;10.964;2023-04-28T15:18:55;16.30;99.90
18335;DHT22;9293;49.524;10.964;2023-04-28T15:21:23;16.20;99.90
18335;DHT22;9293;49.524;10.964;2023-04-28T15:23:51;16.20;99.90
18335;DHT22;9293;49.524;10.964;2023-04-28T15:26:19;16.30;99.90
18335;DHT22;9293;49.524;10.964;2023-04-28T15:28:48;16.20;99.90
18335;DHT22;9293;49.524;10.964;2023-04-28T15:31:16;16.20;99.90
18335;DHT22;9293;49.524;10.964;2023-04-28T15:33:44;16.10;99.90
18335;DHT22;9293;49.524;10.964;2023-04-28T15:36:12;16.10;99.90
18335;DHT22;9293;49.524;10.964;2023-04-28T15:38:40;16.20;99.90
18335;DHT22;9293;49.524;10.964;2023-04-28T15:41:10;16.20;99.90
18335;DHT22;9293;49.524;10.964;2023-04-28T15:43:38;16.20;99.90
18335;DHT22;9293;49.524;10.964;2023-04-28T15:46:06;16.20;99.90
18335;DHT22;9293;49.524;10.964;2023-04-28T15:48:37;16.30;99.90
18335;DHT22;9293;49.524;10.964;2023-04-28T15:51:06;16.20;99.90
18335;DHT22;9293;49.524;10.964;2023-04-28T15:53:34;16.10;99.90
18335;DHT22;9293;49.524;10.964;2023-04-28T15:56:02;16.00;99.90
18335;DHT22;9293;49.524;10.964;2023-04-28T15:58:31;16.00;99.90
18335;DHT22;9293;49.524;10.964;2023-04-28T16:00:59;16.00;99.90
18335;DHT22;9293;49.524;10.964;2023-04-28T16:03:27;15.90;99.90
18335;DHT22;9293;49.524;10.964;2023-04-28T16:05:55;15.90;99.90
18335;DHT22;9293;49.524;10.964;2023-04-28T16:08:23;16.00;99.90
18335;DHT22;9293;49.524;10.964;2023-04-28T16:10:52;15.90;99.90
18335;DHT22;9293;49.524;10.964;2023-04-28T16:13:20;15.90;99.90
18335;DHT22;9293;49.524;10.964;2023-04-28T16:15:50;15.90;99.90
18335;DHT22;9293;49.524;10.964;2023-04-28T16:18:18;16.00;99.90
18335;DHT22;9293;49.524;10.964;2023-04-28T16:20:46;16.00;99.90
18335;DHT22;9293;49.524;10.964;2023-04-28T16:23:14;16.00;99.90
18335;DHT22;9293;49.524;10.964;2023-04-28T16:25:42;16.00;99.90
18335;DHT22;9293;49.524;10.964;2023-04-28T16:28:10;16.00;99.90
18335;DHT22;9293;49.524;10.964;2023-04-28T16:30:38;15.90;99.90